Hyden, Kentucky
Current Conditions -  °F | °C
As of 2:55 PM on Monday 24 Nov 2014 (Local Time) from KI35 Reporting Station
Overcast Overcast  
Wind Chill: 66°   Ceiling: 6000
Heat Index: 66°   Visibility: 10mi
Dew Point: 41°   Wind: 12mph
Humidity: 40%   Direction: 280°W
Pressure: 29.69"   Gusts: 22mph
Location:  37.16°N, 83.37°W
Report Text: KI35 241955Z AUTO 28010G19KT 230V300 10SM BKN060 BKN070 OVC085 19/05 A2969 RMK AO1
Loading
Personal Weather Stations






























Interactive Weather Map New forecast layout! Learn more

10-Day Weather Forecast

Advertisements
Track Severe Weather on mobile